TFM - Tactical Decision Aid (Experimental) INFO Settings
ID: Runway Winds: CIG/VIS Threshold: METAR Board: Map:

Katl - Atlanta-Hartsfield Jackson Intl

Updated at: 1421 UTC 02 Aug 2015
Latest TAF at: 1359 UTC 02 Aug 2015

TAF Board

Time1352Z02/15Z02/16Z02/17Z02/18Z02/19Z02/20Z02/21Z02/22Z02/23Z03/00Z03/01Z03/02Z03/03Z
TypeOBSPRVLPRVLPRVLPRVLPRVLPRVLPRVLPRVLPRVLPRVLPRVLPRVLPRVL
VIS10>6>6>6>6>6>6>6>6>6>6>6>6>6
CIG250--------------------------
CoverBKNFEWFEWFEWFEWFEWSCTSCTSCTSCTSCTFEWFEWFEW
FltCatVFRVFRVFRVFRVFRVFRVFRVFRVFRVFRVFRVFRVFRVFR
WX----------------------------
WDir906070707070350350350350350340340340
WSpd78777755555444
WGst----------------------------
TAF
KATL 021359Z 0214/0318 06008KT P6SM FEW250
  FM021600 07007KT P6SM FEW040
  FM022000 35005KT P6SM SCT050
  FM030100 34004KT P6SM FEW250
  FM031700 30006KT P6SM FEW040


METAR
KATL 021352Z 09007KT 10SM BKN250 27/17 A2998 RMK AO2 SLP139 T02670167 $
KATL 021252Z 05009KT 10SM FEW250 26/15 A2997 RMK AO2 SLP137 T02560150 $

TAF/METAR Board Legend

Potential Impact
  None Marginal Slight Moderate High
Visibility (sm) > ≤X≤ <
Ceiling (100 ft) > ≤X≤ <
Wind Speed (kt) <10 10≤X<20 20≤X<30 ≥30
Wind Gust (kt) <15 15≤X<25 25≤X<35 ≥35
Weather No Wx Reported VCTS -TS,-FZRA TS,FZRA +TS,+FZRA